Niagara Falls, NY

10:15 AM EDT on October 23, 2014 (GMT -0400)
Chautauqua County-Dunkirk | Change Station
CLOSE
Current Station
Airport
Location: Dunkirk,
Elevation: 692 ft
Nearby Weather Stations

Elev 692 ft 42.49 °N, 79.28 °W | Updated 22 minutes ago

Clear
Clear
51 °F
Feels Like 51 °F
N
10
Wind Variable Wind from North

Today
High -- | Low -- °F
--% Chance of Precip.
Yesterday
High -- | Low -- °F
Precip. -- in
7:39 AM 6:20 PM
Waning Crescent, 0% visible
Pressure 30.15 in
Visibility 10.0 miles
Clouds Clear
Dew Point 40 °F
Humidity 66%
Rainfall 0.00 in
Snow Depth Not available.
UV 2 out of 12
Pollen .70 out of 12
Air Quality Not available.
Flu Activity Sporadic
METAR KDKK 231353Z AUTO 01009KT 10SM CLR 11/04 A3014 RMK AO2 SLP210 T01060044

More Conditions Fewer Conditions

Pressure 30.15 in
Visibility 10.0 miles
Clouds Clear
Dew Point 40 °F
Humidity 66%
Rainfall 0.00 in
Snow Depth Not available.
UV 2 out of 12
Pollen .70 out of 12
Air Quality Not available.
Flu Activity Sporadic
METAR KDKK 231353Z AUTO 01009KT 10SM CLR 11/04 A3014 RMK AO2 SLP210 T01060044

More Conditions Fewer Conditions

10-Day Weather Forecast

Almanac

Astronomy

Oct. 23, 2014 Rise Set
Actual Time 7:39 AM EDT 6:20 PM EDT
Civil Twilight 7:10 AM EDT 6:49 PM EDT
Nautical Twilight 6:37 AM EDT 7:22 PM EDT
Astronomical Twilight 6:04 AM EDT 7:55 PM EDT
Moon 7:16 AM EDT 6:21 PM EDT
Length of Visible Light 11h 39m
Length of Day
10h 41m
Tomorrow will be 2m 44s shorter.
Waning Crescent, 0% of the Moon is Illuminated
Today
Waning Crescent
Oct 23
New
Oct 30
First Quarter
Nov 6
Full
Nov 14
Last Quarter

Today's Extremes

State Highs State Lows

Community

WunderPhotos

Upload Photos

1,764,256 photos uploaded!

Nearby

Air Quality

  Air Quality AQ Index Pollutant
Thursday Good
PM2.5

Snow Depth

Station Depth Elevation
No new snow has been reported.

Earthquake Activity

City Distance Mag. Time & Date
No recent earthquake activity has been reported nearby.
Minimum magnitude displayed is 2.5.

Coastal Water Temperatures

Place Temperature
Buffalo, NY 55.9 °F

Nearby Weather Stations